DAL8635 KDEN-PHOG
Flight info
| Callsign | DAL8635 |
|---|---|
| Flight time | 7h 8m |
| Altitude | 38000 |
| Route | ZIMMR4 CHNGY EKR KU63O FASTE KU63I RBL FATMO/N0487F400 36N135W 33N142W 30N148W AUNTI R463 APACK LNDHY1 |
| Aircraft | A359/H-SDE2E3GHIJ3J4J5LM1ORWXY/LB1D1 |
Departure
| Time | 2026-05-04 06:26 |
|---|---|
| Airport | Denver International Airport (KDEN) |
Arrival
| Time | 2026-05-04 13:34 |
|---|---|
| Airport | Kahului International Airport (PHOG) |
| Time | Latitude | Longitude | Altitude | Speed | Heading |
|---|---|---|---|---|---|
| 2026-05-04 05:39 | 39.85443 | -104.67602 | 5390 ft | 0 kts | 166° |
| 2026-05-04 06:14 | 39.85511 | -104.67630 | 5386 ft | 4 kts | 152° |
| 2026-05-04 06:14 | 39.85532 | -104.67650 | 5387 ft | 4 kts | 129° |
| 2026-05-04 06:15 | 39.85542 | -104.67676 | 5384 ft | 1 kts | 90° |
| 2026-05-04 06:15 | 39.85542 | -104.67677 | 5383 ft | 0 kts | 90° |
| 2026-05-04 06:20 | 39.85573 | -104.66547 | 5383 ft | 19 kts | 69° |
| 2026-05-04 06:20 | 39.85582 | -104.66390 | 5394 ft | 16 kts | 90° |
| 2026-05-04 06:21 | 39.85965 | -104.66229 | 5389 ft | 27 kts | 1° |
| 2026-05-04 06:21 | 39.86163 | -104.66224 | 5385 ft | 31 kts | 0° |
| 2026-05-04 06:22 | 39.86311 | -104.66225 | 5387 ft | 28 kts | 360° |
| 2026-05-04 06:22 | 39.86451 | -104.66226 | 5386 ft | 12 kts | 3° |
| 2026-05-04 06:25 | 39.85784 | -104.64141 | 5356 ft | 95 kts | 181° |
| 2026-05-04 06:25 | 39.84957 | -104.64151 | 5365 ft | 141 kts | 180° |
| 2026-05-04 06:26 | 39.83842 | -104.64154 | 5509 ft | 164 kts | 178° |
| 2026-05-04 06:26 | 39.82781 | -104.63930 | 6160 ft | 161 kts | 171° |
| 2026-05-04 06:26 | 39.81656 | -104.63656 | 6483 ft | 162 kts | 181° |
| 2026-05-04 06:26 | 39.80580 | -104.63944 | 6828 ft | 163 kts | 212° |
| 2026-05-04 06:27 | 39.82989 | -104.67872 | 7641 ft | 251 kts | 358° |
| 2026-05-04 06:28 | 39.84707 | -104.68420 | 7889 ft | 263 kts | 325° |
| 2026-05-04 06:28 | 39.85920 | -104.70191 | 8366 ft | 268 kts | 295° |
| 2026-05-04 06:28 | 39.86698 | -104.72419 | 9036 ft | 273 kts | 293° |
| 2026-05-04 06:28 | 39.87462 | -104.74701 | 9665 ft | 277 kts | 294° |
| 2026-05-04 06:29 | 39.88262 | -104.76989 | 9952 ft | 278 kts | 295° |
| 2026-05-04 06:29 | 39.89085 | -104.79273 | 10003 ft | 279 kts | 295° |
| 2026-05-04 06:29 | 39.89920 | -104.81555 | 9991 ft | 280 kts | 296° |
| 2026-05-04 06:29 | 39.90764 | -104.83841 | 9975 ft | 280 kts | 296° |
| 2026-05-04 06:30 | 39.91611 | -104.86128 | 9961 ft | 280 kts | 296° |
| 2026-05-04 06:30 | 39.92459 | -104.88414 | 9947 ft | 280 kts | 296° |
| 2026-05-04 06:30 | 39.93127 | -104.90791 | 9933 ft | 281 kts | 282° |
| 2026-05-04 06:30 | 39.93312 | -104.93320 | 10120 ft | 282 kts | 273° |
| 2026-05-04 06:31 | 39.93366 | -104.95873 | 10714 ft | 282 kts | 272° |
| 2026-05-04 06:31 | 39.93414 | -104.98319 | 11364 ft | 285 kts | 272° |
| 2026-05-04 06:31 | 39.93470 | -105.00940 | 12156 ft | 288 kts | 272° |
| 2026-05-04 06:31 | 39.93531 | -105.03590 | 12939 ft | 289 kts | 272° |
| 2026-05-04 06:32 | 39.93588 | -105.06211 | 13708 ft | 291 kts | 272° |
| 2026-05-04 06:33 | 39.94070 | -105.24981 | 18172 ft | 302 kts | 276° |
| 2026-05-04 06:34 | 39.94308 | -105.27706 | 18724 ft | 305 kts | 277° |
| 2026-05-04 06:34 | 39.94548 | -105.30469 | 19197 ft | 308 kts | 277° |
| 2026-05-04 06:34 | 39.94778 | -105.33258 | 19705 ft | 311 kts | 277° |
| 2026-05-04 06:34 | 39.95008 | -105.36067 | 20185 ft | 314 kts | 277° |
| 2026-05-04 06:35 | 39.95235 | -105.38912 | 20680 ft | 316 kts | 276° |
| 2026-05-04 06:36 | 39.96960 | -105.60921 | 23334 ft | 370 kts | 276° |
| 2026-05-04 06:37 | 39.97214 | -105.64271 | 23801 ft | 373 kts | 276° |
| 2026-05-04 06:37 | 39.97465 | -105.67625 | 24384 ft | 371 kts | 275° |
| 2026-05-04 06:37 | 39.97651 | -105.71003 | 24747 ft | 377 kts | 274° |
| 2026-05-04 06:37 | 39.97808 | -105.74454 | 24991 ft | 387 kts | 274° |
| 2026-05-04 06:38 | 39.97973 | -105.77994 | 25215 ft | 396 kts | 274° |
| 2026-05-04 06:38 | 39.98146 | -105.81617 | 25457 ft | 405 kts | 274° |
| 2026-05-04 06:40 | 39.99437 | -106.08211 | 28476 ft | 426 kts | 273° |
| 2026-05-04 06:40 | 39.99621 | -106.12080 | 28913 ft | 429 kts | 273° |
| 2026-05-04 06:40 | 39.99805 | -106.15987 | 29251 ft | 434 kts | 273° |
| 2026-05-04 06:40 | 39.99989 | -106.19924 | 29628 ft | 436 kts | 273° |
| 2026-05-04 06:41 | 40.00173 | -106.23881 | 30049 ft | 438 kts | 273° |
| 2026-05-04 06:41 | 40.00357 | -106.27855 | 30375 ft | 440 kts | 273° |
| 2026-05-04 06:41 | 40.00540 | -106.31840 | 30667 ft | 442 kts | 273° |
| 2026-05-04 06:41 | 40.00723 | -106.35855 | 30951 ft | 444 kts | 273° |
| 2026-05-04 06:42 | 40.00905 | -106.39878 | 31282 ft | 445 kts | 273° |
| 2026-05-04 06:42 | 40.01085 | -106.43912 | 31577 ft | 446 kts | 273° |
| 2026-05-04 06:42 | 40.01265 | -106.47952 | 31955 ft | 446 kts | 273° |
| 2026-05-04 06:44 | 40.02468 | -106.75922 | 34661 ft | 434 kts | 272° |
| 2026-05-04 06:44 | 40.02624 | -106.79661 | 35074 ft | 430 kts | 272° |
| 2026-05-04 06:44 | 40.02783 | -106.83538 | 35443 ft | 427 kts | 272° |
| 2026-05-04 06:45 | 40.02939 | -106.87346 | 35770 ft | 424 kts | 272° |
| 2026-05-04 06:45 | 40.03095 | -106.91184 | 36073 ft | 423 kts | 272° |
| 2026-05-04 06:45 | 40.03251 | -106.95051 | 36360 ft | 421 kts | 272° |
| 2026-05-04 06:45 | 40.03401 | -106.98813 | 36598 ft | 420 kts | 272° |
| 2026-05-04 06:46 | 40.03551 | -107.02604 | 36906 ft | 418 kts | 272° |
| 2026-05-04 06:46 | 40.03699 | -107.06387 | 37187 ft | 416 kts | 272° |
| 2026-05-04 06:46 | 40.03845 | -107.10130 | 37592 ft | 411 kts | 272° |
| 2026-05-04 06:46 | 40.03990 | -107.13845 | 37884 ft | 408 kts | 272° |
| 2026-05-04 06:48 | 40.04972 | -107.40185 | 37908 ft | 420 kts | 272° |
| 2026-05-04 06:48 | 40.05109 | -107.43988 | 37908 ft | 419 kts | 271° |
| 2026-05-04 06:50 | 40.06113 | -107.72988 | 37877 ft | 417 kts | 271° |
| 2026-05-04 06:51 | 40.06363 | -107.80560 | 37868 ft | 417 kts | 271° |
| 2026-05-04 06:51 | 40.06486 | -107.84333 | 38027 ft | 417 kts | 271° |
| 2026-05-04 06:51 | 40.06608 | -107.88117 | 38024 ft | 416 kts | 271° |
| 2026-05-04 06:52 | 40.07161 | -107.95635 | 38028 ft | 417 kts | 276° |
| 2026-05-04 06:52 | 40.08046 | -108.03128 | 37846 ft | 418 kts | 277° |
| 2026-05-04 06:53 | 40.08978 | -108.10610 | 37846 ft | 418 kts | 277° |
| 2026-05-04 06:53 | 40.09907 | -108.18107 | 37839 ft | 418 kts | 277° |
| 2026-05-04 06:54 | 40.10822 | -108.25602 | 37841 ft | 419 kts | 277° |
| 2026-05-04 06:54 | 40.11718 | -108.33020 | 37834 ft | 423 kts | 277° |
| 2026-05-04 06:55 | 40.12624 | -108.40540 | 37829 ft | 423 kts | 277° |
| 2026-05-04 06:55 | 40.13510 | -108.47937 | 37824 ft | 424 kts | 277° |
| 2026-05-04 06:57 | 40.17047 | -108.77887 | 37791 ft | 425 kts | 276° |
| 2026-05-04 06:58 | 40.17925 | -108.85430 | 37800 ft | 425 kts | 276° |
| 2026-05-04 06:58 | 40.18760 | -108.92650 | 37800 ft | 424 kts | 276° |
| 2026-05-04 06:59 | 40.19634 | -109.00246 | 37799 ft | 426 kts | 276° |
| 2026-05-04 06:59 | 40.20505 | -109.07861 | 37795 ft | 430 kts | 276° |
| 2026-05-04 07:01 | 40.23958 | -109.38502 | 37866 ft | 430 kts | 276° |
| 2026-05-04 07:02 | 40.24817 | -109.46254 | 37865 ft | 430 kts | 276° |
| 2026-05-04 07:02 | 40.25672 | -109.54003 | 37889 ft | 430 kts | 276° |
| 2026-05-04 07:03 | 40.26522 | -109.61761 | 37884 ft | 430 kts | 276° |
| 2026-05-04 07:03 | 40.27366 | -109.69517 | 37793 ft | 430 kts | 276° |
| 2026-05-04 07:04 | 40.28208 | -109.77301 | 37794 ft | 435 kts | 276° |
| 2026-05-04 07:04 | 40.29038 | -109.85034 | 37786 ft | 436 kts | 276° |
| 2026-05-04 07:05 | 40.29876 | -109.92879 | 37801 ft | 435 kts | 276° |
| 2026-05-04 07:05 | 40.30698 | -110.00623 | 37806 ft | 435 kts | 276° |
| 2026-05-04 07:06 | 40.31931 | -110.12346 | 37806 ft | 434 kts | 276° |
| 2026-05-04 07:07 | 40.32722 | -110.19914 | 37819 ft | 433 kts | 276° |
| 2026-05-04 07:09 | 40.35820 | -110.50108 | 37856 ft | 437 kts | 275° |
| 2026-05-04 07:09 | 40.36584 | -110.57675 | 37848 ft | 440 kts | 275° |
| 2026-05-04 07:10 | 40.37265 | -110.64465 | 37853 ft | 441 kts | 275° |
| 2026-05-04 07:12 | 40.40242 | -110.94638 | 37873 ft | 440 kts | 275° |
| 2026-05-04 07:12 | 40.41016 | -111.02596 | 37882 ft | 440 kts | 275° |
| 2026-05-04 07:13 | 40.41783 | -111.10572 | 37901 ft | 440 kts | 275° |
| 2026-05-04 07:13 | 40.42545 | -111.18549 | 37927 ft | 442 kts | 275° |
| 2026-05-04 07:14 | 40.44457 | -111.38830 | 37963 ft | 449 kts | 275° |
| 2026-05-04 07:15 | 40.45214 | -111.46956 | 37962 ft | 449 kts | 275° |
| 2026-05-04 07:15 | 40.45961 | -111.55043 | 37963 ft | 449 kts | 275° |
| 2026-05-04 07:16 | 40.46335 | -111.59113 | 37856 ft | 449 kts | 275° |
| 2026-05-04 07:16 | 40.46707 | -111.63186 | 37861 ft | 449 kts | 275° |
| 2026-05-04 07:16 | 40.47447 | -111.71328 | 37850 ft | 449 kts | 275° |
| 2026-05-04 07:17 | 40.48181 | -111.79471 | 37851 ft | 449 kts | 275° |
| 2026-05-04 07:17 | 40.48909 | -111.87609 | 37889 ft | 448 kts | 275° |
| 2026-05-04 07:18 | 40.49633 | -111.95772 | 37900 ft | 452 kts | 275° |
| 2026-05-04 07:18 | 40.50361 | -112.04008 | 37898 ft | 454 kts | 275° |
| 2026-05-04 07:19 | 40.51106 | -112.12249 | 37882 ft | 454 kts | 275° |
| 2026-05-04 07:19 | 40.51850 | -112.20487 | 37881 ft | 455 kts | 275° |
| 2026-05-04 07:20 | 40.52585 | -112.28727 | 37895 ft | 454 kts | 275° |
| 2026-05-04 07:20 | 40.53312 | -112.36978 | 37893 ft | 454 kts | 275° |
| 2026-05-04 07:22 | 40.55808 | -112.65842 | 37774 ft | 454 kts | 274° |
| 2026-05-04 07:22 | 40.56159 | -112.69966 | 37782 ft | 454 kts | 274° |
| 2026-05-04 07:23 | 40.56856 | -112.78220 | 37774 ft | 454 kts | 274° |
| 2026-05-04 07:23 | 40.57547 | -112.86467 | 37781 ft | 453 kts | 274° |
| 2026-05-04 07:24 | 40.58231 | -112.94707 | 37785 ft | 453 kts | 274° |
| 2026-05-04 07:24 | 40.58908 | -113.02945 | 37775 ft | 453 kts | 274° |
| 2026-05-04 07:26 | 40.61563 | -113.35946 | 37777 ft | 459 kts | 274° |
| 2026-05-04 07:27 | 40.62221 | -113.44306 | 37780 ft | 460 kts | 274° |
| 2026-05-04 07:27 | 40.62874 | -113.52683 | 37790 ft | 460 kts | 274° |
| 2026-05-04 07:28 | 40.63522 | -113.61066 | 37803 ft | 460 kts | 274° |
| 2026-05-04 07:28 | 40.64162 | -113.69449 | 37838 ft | 460 kts | 274° |
| 2026-05-04 07:29 | 40.64798 | -113.77837 | 37865 ft | 460 kts | 273° |
| 2026-05-04 07:29 | 40.65426 | -113.86220 | 37885 ft | 460 kts | 273° |
| 2026-05-04 07:30 | 40.66047 | -113.94593 | 37918 ft | 460 kts | 273° |
| 2026-05-04 07:30 | 40.66664 | -114.02982 | 37907 ft | 462 kts | 273° |
| 2026-05-04 07:31 | 40.67278 | -114.11437 | 37906 ft | 464 kts | 273° |
| 2026-05-04 07:33 | 40.69674 | -114.45225 | 37823 ft | 465 kts | 273° |
| 2026-05-04 07:33 | 40.69823 | -114.53716 | 37824 ft | 463 kts | 266° |
| 2026-05-04 07:34 | 40.69517 | -114.62177 | 37828 ft | 462 kts | 265° |
| 2026-05-04 07:34 | 40.69138 | -114.70636 | 37823 ft | 462 kts | 265° |
| 2026-05-04 07:35 | 40.68751 | -114.79105 | 37833 ft | 464 kts | 265° |
| 2026-05-04 07:35 | 40.68364 | -114.87610 | 37831 ft | 466 kts | 265° |
| 2026-05-04 07:36 | 40.67976 | -114.96136 | 37832 ft | 466 kts | 265° |
| 2026-05-04 07:38 | 40.66469 | -115.28023 | 37837 ft | 465 kts | 264° |
| 2026-05-04 07:38 | 40.66051 | -115.36524 | 37839 ft | 466 kts | 264° |
| 2026-05-04 07:39 | 40.65627 | -115.45047 | 37835 ft | 467 kts | 264° |
| 2026-05-04 07:39 | 40.65202 | -115.53578 | 37833 ft | 467 kts | 264° |
| 2026-05-04 07:40 | 40.64763 | -115.62102 | 37840 ft | 467 kts | 264° |
| 2026-05-04 07:40 | 40.64320 | -115.70578 | 37840 ft | 467 kts | 264° |
| 2026-05-04 07:41 | 40.63868 | -115.79116 | 37838 ft | 468 kts | 264° |
| 2026-05-04 07:41 | 40.63408 | -115.87721 | 37837 ft | 470 kts | 264° |
| 2026-05-04 07:42 | 40.62941 | -115.96317 | 37838 ft | 471 kts | 264° |
| 2026-05-04 07:42 | 40.62472 | -116.04871 | 37837 ft | 472 kts | 264° |
| 2026-05-04 07:43 | 40.61991 | -116.13491 | 37834 ft | 472 kts | 264° |
| 2026-05-04 07:43 | 40.61504 | -116.22095 | 37835 ft | 472 kts | 264° |
| 2026-05-04 07:44 | 40.61035 | -116.30302 | 37835 ft | 473 kts | 264° |
| 2026-05-04 07:44 | 40.60565 | -116.38399 | 37832 ft | 473 kts | 264° |
| 2026-05-04 07:45 | 40.60127 | -116.45868 | 37847 ft | 473 kts | 264° |
| 2026-05-04 07:45 | 40.59656 | -116.53810 | 37871 ft | 473 kts | 264° |
| 2026-05-04 07:46 | 40.59193 | -116.61530 | 37893 ft | 473 kts | 264° |
| 2026-05-04 07:46 | 40.58681 | -116.69968 | 37919 ft | 474 kts | 264° |
| 2026-05-04 07:47 | 40.58199 | -116.77807 | 37932 ft | 474 kts | 263° |
| 2026-05-04 07:49 | 40.56340 | -117.06302 | 37910 ft | 478 kts | 264° |
| 2026-05-04 07:49 | 40.55905 | -117.13925 | 37883 ft | 479 kts | 264° |
| 2026-05-04 07:50 | 40.55370 | -117.22400 | 37820 ft | 479 kts | 263° |
| 2026-05-04 07:50 | 40.54824 | -117.30612 | 37810 ft | 479 kts | 263° |
| 2026-05-04 07:51 | 40.54290 | -117.38553 | 37817 ft | 479 kts | 263° |
| 2026-05-04 07:51 | 40.53796 | -117.45871 | 37815 ft | 479 kts | 263° |
| 2026-05-04 07:52 | 40.53340 | -117.52574 | 37820 ft | 479 kts | 263° |
| 2026-05-04 07:52 | 40.52856 | -117.59626 | 37820 ft | 480 kts | 263° |
| 2026-05-04 07:54 | 40.51843 | -117.88706 | 37192 ft | 489 kts | 264° |
| 2026-05-04 07:55 | 40.51501 | -117.92441 | 37331 ft | 484 kts | 258° |
| 2026-05-04 07:55 | 40.50916 | -117.96199 | 37537 ft | 482 kts | 256° |
| 2026-05-04 07:55 | 40.50269 | -118.00440 | 37785 ft | 481 kts | 259° |
| 2026-05-04 07:55 | 40.49732 | -118.04789 | 37833 ft | 483 kts | 261° |
| 2026-05-04 07:56 | 40.48918 | -118.13528 | 37831 ft | 482 kts | 263° |
| 2026-05-04 07:56 | 40.48251 | -118.22295 | 37834 ft | 483 kts | 263° |
| 2026-05-04 07:57 | 40.47592 | -118.31066 | 37839 ft | 482 kts | 263° |
| 2026-05-04 07:57 | 40.46910 | -118.39832 | 37841 ft | 483 kts | 263° |
| 2026-05-04 07:58 | 40.46211 | -118.48600 | 37845 ft | 483 kts | 263° |
| 2026-05-04 07:58 | 40.45502 | -118.57382 | 37845 ft | 483 kts | 263° |
| 2026-05-04 07:59 | 40.44790 | -118.66115 | 37845 ft | 483 kts | 263° |
| 2026-05-04 07:59 | 40.44074 | -118.74837 | 37851 ft | 484 kts | 262° |
| 2026-05-04 08:00 | 40.43345 | -118.83631 | 37859 ft | 485 kts | 262° |
| 2026-05-04 08:02 | 40.40364 | -119.18758 | 37872 ft | 487 kts | 263° |
| 2026-05-04 08:02 | 40.39599 | -119.27587 | 37877 ft | 487 kts | 263° |
| 2026-05-04 08:03 | 40.38824 | -119.36432 | 37879 ft | 489 kts | 262° |
| 2026-05-04 08:03 | 40.38036 | -119.45346 | 37881 ft | 489 kts | 263° |
| 2026-05-04 08:04 | 40.37253 | -119.54129 | 37885 ft | 489 kts | 262° |
| 2026-05-04 08:04 | 40.36456 | -119.62992 | 37880 ft | 490 kts | 262° |
| 2026-05-04 08:05 | 40.35651 | -119.71853 | 37883 ft | 490 kts | 262° |
| 2026-05-04 08:05 | 40.34907 | -119.79993 | 37883 ft | 490 kts | 262° |
| 2026-05-04 08:06 | 40.34091 | -119.88864 | 37887 ft | 490 kts | 262° |
| 2026-05-04 08:06 | 40.33263 | -119.97748 | 37884 ft | 491 kts | 262° |
| 2026-05-04 08:08 | 40.29874 | -120.33428 | 37960 ft | 493 kts | 262° |
| 2026-05-04 08:11 | 40.25934 | -120.73486 | 37981 ft | 493 kts | 261° |
| 2026-05-04 08:11 | 40.24592 | -120.86819 | 37977 ft | 493 kts | 261° |
| 2026-05-04 08:12 | 40.23692 | -120.95655 | 37968 ft | 493 kts | 262° |
| 2026-05-04 08:12 | 40.22777 | -121.04568 | 37978 ft | 496 kts | 262° |
| 2026-05-04 08:13 | 40.21853 | -121.13521 | 37985 ft | 497 kts | 262° |
| 2026-05-04 08:13 | 40.20922 | -121.22476 | 37994 ft | 497 kts | 262° |
| 2026-05-04 08:14 | 40.19984 | -121.31422 | 37999 ft | 497 kts | 262° |
| 2026-05-04 08:16 | 40.16150 | -121.67285 | 37997 ft | 499 kts | 262° |
| 2026-05-04 08:16 | 40.15171 | -121.76277 | 37987 ft | 499 kts | 262° |
| 2026-05-04 08:17 | 40.14186 | -121.85254 | 37990 ft | 499 kts | 262° |
| 2026-05-04 08:17 | 40.13195 | -121.94219 | 37996 ft | 498 kts | 262° |
| 2026-05-04 08:19 | 40.08679 | -122.29920 | 38008 ft | 500 kts | 256° |
| 2026-05-04 08:20 | 40.06978 | -122.38733 | 37986 ft | 501 kts | 255° |
| 2026-05-04 08:20 | 40.05242 | -122.47535 | 37982 ft | 501 kts | 255° |
| 2026-05-04 08:21 | 40.03501 | -122.56346 | 37976 ft | 501 kts | 255° |
| 2026-05-04 08:21 | 40.01760 | -122.65152 | 37984 ft | 501 kts | 255° |
| 2026-05-04 08:22 | 40.00014 | -122.73956 | 37962 ft | 501 kts | 255° |
| 2026-05-04 08:24 | 39.92970 | -123.09098 | 37992 ft | 501 kts | 255° |
| 2026-05-04 08:24 | 39.91194 | -123.17859 | 38011 ft | 501 kts | 255° |
| 2026-05-04 08:25 | 39.89411 | -123.26625 | 38012 ft | 501 kts | 255° |
| 2026-05-04 08:25 | 39.87619 | -123.35394 | 38004 ft | 502 kts | 255° |
| 2026-05-04 08:27 | 39.80375 | -123.70477 | 38017 ft | 503 kts | 255° |
| 2026-05-04 08:28 | 39.78879 | -123.77651 | 38018 ft | 503 kts | 255° |
| 2026-05-04 08:28 | 39.77321 | -123.85087 | 38002 ft | 505 kts | 255° |
| 2026-05-04 08:29 | 39.75799 | -123.92313 | 38018 ft | 505 kts | 255° |
| 2026-05-04 08:31 | 39.70011 | -124.20052 | 37997 ft | 503 kts | 256° |
| 2026-05-04 08:33 | 39.65442 | -124.44080 | 38132 ft | 427 kts | 250° |
| 2026-05-04 08:33 | 39.64859 | -124.47060 | 37963 ft | 406 kts | 242° |
| 2026-05-04 08:35 | 39.73268 | -124.55416 | 37911 ft | 326 kts | 53° |
| 2026-05-04 08:35 | 39.74291 | -124.52829 | 37785 ft | 327 kts | 78° |
| 2026-05-04 08:35 | 39.74316 | -124.49825 | 37160 ft | 345 kts | 103° |
| 2026-05-04 08:35 | 39.73237 | -124.47043 | 37182 ft | 347 kts | 129° |
| 2026-05-04 08:37 | 39.62175 | -124.52350 | 37128 ft | 360 kts | 268° |
| 2026-05-04 08:37 | 39.62370 | -124.55491 | 36991 ft | 359 kts | 290° |
| 2026-05-04 08:37 | 39.63199 | -124.57887 | 36703 ft | 360 kts | 309° |
| 2026-05-04 08:38 | 39.64619 | -124.59888 | 36438 ft | 358 kts | 329° |
| 2026-05-04 08:38 | 39.66684 | -124.61201 | 36524 ft | 340 kts | 352° |
| 2026-05-04 08:38 | 39.68668 | -124.61374 | 36768 ft | 322 kts | 13° |
| 2026-05-04 08:40 | 39.67381 | -124.48029 | 36236 ft | 351 kts | 176° |
| 2026-05-04 08:40 | 39.64930 | -124.48495 | 36068 ft | 364 kts | 195° |
| 2026-05-04 08:40 | 39.62564 | -124.50050 | 34887 ft | 409 kts | 216° |
| 2026-05-04 08:41 | 39.60534 | -124.52915 | 33692 ft | 455 kts | 238° |
| 2026-05-04 08:41 | 39.59221 | -124.56789 | 32829 ft | 484 kts | 257° |
| 2026-05-04 08:41 | 39.58785 | -124.60915 | 32609 ft | 493 kts | 270° |
| 2026-05-04 08:41 | 39.58698 | -124.65092 | 32759 ft | 498 kts | 271° |
| 2026-05-04 08:42 | 39.58550 | -124.68999 | 32929 ft | 503 kts | 268° |
| 2026-05-04 08:42 | 39.58313 | -124.72479 | 33090 ft | 505 kts | 269° |
| 2026-05-04 08:42 | 39.58018 | -124.75915 | 33150 ft | 512 kts | 259° |
| 2026-05-04 08:42 | 39.57139 | -124.80176 | 33272 ft | 517 kts | 255° |
| 2026-05-04 08:43 | 39.56118 | -124.84664 | 33478 ft | 521 kts | 254° |
| 2026-05-04 08:43 | 39.55224 | -124.88506 | 33603 ft | 524 kts | 254° |
| 2026-05-04 08:43 | 39.54309 | -124.92440 | 33874 ft | 525 kts | 255° |
| 2026-05-04 08:43 | 39.53490 | -124.96002 | 34088 ft | 526 kts | 255° |
| 2026-05-04 08:44 | 39.52583 | -125.00006 | 34290 ft | 527 kts | 255° |
| 2026-05-04 08:44 | 39.51736 | -125.03786 | 34524 ft | 527 kts | 255° |
| 2026-05-04 08:46 | 39.47886 | -125.27691 | 35766 ft | 516 kts | 252° |
| 2026-05-04 08:46 | 39.46669 | -125.30929 | 34713 ft | 544 kts | 239° |
| 2026-05-04 08:46 | 39.45267 | -125.34095 | 34541 ft | 548 kts | 237° |
| 2026-05-04 08:46 | 39.43247 | -125.37538 | 34821 ft | 541 kts | 232° |
| 2026-05-04 08:47 | 39.41808 | -125.40766 | 35512 ft | 526 kts | 248° |
| 2026-05-04 08:47 | 39.41038 | -125.44213 | 36367 ft | 509 kts | 262° |
| 2026-05-04 08:47 | 39.40793 | -125.47600 | 36861 ft | 500 kts | 272° |
| 2026-05-04 08:47 | 39.40926 | -125.51561 | 37040 ft | 500 kts | 275° |
| 2026-05-04 08:48 | 39.40937 | -125.54931 | 36997 ft | 504 kts | 268° |
| 2026-05-04 08:48 | 39.40248 | -125.61708 | 36596 ft | 517 kts | 252° |
| 2026-05-04 08:48 | 39.39252 | -125.65022 | 36058 ft | 531 kts | 245° |
| 2026-05-04 08:49 | 39.37766 | -125.68021 | 36142 ft | 528 kts | 230° |
| 2026-05-04 08:50 | 39.30642 | -125.89523 | 37935 ft | 504 kts | 275° |
| 2026-05-04 08:50 | 39.30957 | -125.93850 | 38000 ft | 507 kts | 271° |
| 2026-05-04 08:51 | 39.30607 | -125.98383 | 38030 ft | 509 kts | 259° |
| 2026-05-04 08:51 | 39.29807 | -126.02667 | 38033 ft | 509 kts | 254° |
| 2026-05-04 08:51 | 39.27628 | -126.11310 | 38031 ft | 510 kts | 252° |
| 2026-05-04 08:52 | 39.25374 | -126.20072 | 38028 ft | 511 kts | 253° |
| 2026-05-04 08:52 | 39.23273 | -126.28763 | 38028 ft | 511 kts | 253° |
| 2026-05-04 08:54 | 39.15001 | -126.63911 | 38031 ft | 513 kts | 253° |
| 2026-05-04 08:55 | 39.12910 | -126.72694 | 38027 ft | 513 kts | 254° |
| 2026-05-04 08:55 | 39.10814 | -126.81467 | 38030 ft | 513 kts | 253° |
| 2026-05-04 09:01 | 38.84751 | -127.63917 | 38014 ft | 513 kts | 247° |
| 2026-05-04 09:01 | 38.82335 | -127.70976 | 38011 ft | 512 kts | 247° |
| 2026-05-04 09:02 | 38.79913 | -127.78035 | 38016 ft | 512 kts | 247° |
| 2026-05-04 09:02 | 38.77419 | -127.85287 | 38016 ft | 513 kts | 247° |
| 2026-05-04 09:03 | 38.74843 | -127.92757 | 38015 ft | 513 kts | 247° |
| 2026-05-04 09:03 | 38.72246 | -128.00267 | 38030 ft | 513 kts | 247° |
| 2026-05-04 09:04 | 38.69606 | -128.07883 | 38019 ft | 513 kts | 247° |
| 2026-05-04 09:04 | 38.67040 | -128.15270 | 38030 ft | 514 kts | 247° |
| 2026-05-04 09:05 | 38.64598 | -128.22279 | 38005 ft | 514 kts | 247° |
| 2026-05-04 09:05 | 38.61901 | -128.30002 | 38011 ft | 515 kts | 247° |
| 2026-05-04 09:06 | 38.58976 | -128.38354 | 38007 ft | 514 kts | 247° |
| 2026-05-04 09:08 | 38.47217 | -128.71696 | 38019 ft | 515 kts | 247° |
| 2026-05-04 09:08 | 38.44261 | -128.80017 | 38024 ft | 515 kts | 247° |
| 2026-05-04 09:09 | 38.41314 | -128.88290 | 38022 ft | 516 kts | 247° |
| 2026-05-04 09:09 | 38.38342 | -128.96611 | 38027 ft | 516 kts | 247° |
| 2026-05-04 09:10 | 38.35364 | -129.04926 | 38024 ft | 516 kts | 246° |
| 2026-05-04 09:10 | 38.32383 | -129.13226 | 38026 ft | 516 kts | 246° |
| 2026-05-04 09:11 | 38.29393 | -129.21528 | 38028 ft | 516 kts | 246° |
| 2026-05-04 09:11 | 38.26394 | -129.29831 | 38029 ft | 516 kts | 246° |
| 2026-05-04 09:12 | 38.23388 | -129.38131 | 38028 ft | 516 kts | 246° |
| 2026-05-04 09:14 | 38.11313 | -129.71240 | 38026 ft | 516 kts | 246° |
| 2026-05-04 09:14 | 38.08283 | -129.79492 | 38032 ft | 516 kts | 246° |
| 2026-05-04 09:15 | 38.05244 | -129.87746 | 38032 ft | 516 kts | 246° |
| 2026-05-04 09:15 | 38.02198 | -129.95993 | 38030 ft | 516 kts | 246° |
| 2026-05-04 09:17 | 37.88460 | -130.32927 | 38036 ft | 515 kts | 246° |
| 2026-05-04 09:18 | 37.85886 | -130.39797 | 38032 ft | 515 kts | 246° |
| 2026-05-04 09:18 | 37.82814 | -130.47977 | 38039 ft | 515 kts | 246° |
| 2026-05-04 09:19 | 37.79753 | -130.56105 | 38042 ft | 515 kts | 246° |
| 2026-05-04 09:19 | 37.76667 | -130.64278 | 38040 ft | 515 kts | 246° |
| 2026-05-04 09:20 | 37.73576 | -130.72441 | 38042 ft | 515 kts | 246° |
| 2026-05-04 09:20 | 37.70485 | -130.80586 | 38048 ft | 515 kts | 246° |
| 2026-05-04 09:21 | 37.67384 | -130.88733 | 38045 ft | 515 kts | 246° |
| 2026-05-04 09:21 | 37.64279 | -130.96870 | 38051 ft | 514 kts | 246° |
| 2026-05-04 09:22 | 37.61169 | -131.04997 | 38050 ft | 514 kts | 246° |
| 2026-05-04 09:22 | 37.58053 | -131.13120 | 38049 ft | 514 kts | 246° |
| 2026-05-04 09:23 | 37.54934 | -131.21230 | 38054 ft | 514 kts | 246° |
| 2026-05-04 09:23 | 37.51813 | -131.29323 | 38058 ft | 514 kts | 246° |
| 2026-05-04 09:25 | 37.39269 | -131.61640 | 38064 ft | 513 kts | 246° |
| 2026-05-04 09:26 | 37.36144 | -131.69640 | 38068 ft | 513 kts | 246° |
| 2026-05-04 09:26 | 37.32994 | -131.77682 | 38052 ft | 513 kts | 246° |
| 2026-05-04 09:27 | 37.29842 | -131.85709 | 38082 ft | 512 kts | 246° |
| 2026-05-04 09:27 | 37.26684 | -131.93732 | 38081 ft | 512 kts | 246° |
| 2026-05-04 09:28 | 37.23520 | -132.01748 | 38077 ft | 512 kts | 246° |
| 2026-05-04 09:28 | 37.20352 | -132.09754 | 38072 ft | 512 kts | 246° |
| 2026-05-04 09:29 | 37.17181 | -132.17749 | 38081 ft | 512 kts | 246° |
| 2026-05-04 09:29 | 37.14003 | -132.25738 | 38076 ft | 512 kts | 246° |
| 2026-05-04 09:30 | 37.10823 | -132.33715 | 38085 ft | 512 kts | 246° |
| 2026-05-04 09:30 | 37.07633 | -132.41695 | 38082 ft | 512 kts | 246° |
| 2026-05-04 09:31 | 37.04438 | -132.49669 | 38085 ft | 512 kts | 246° |
| 2026-05-04 09:31 | 37.01259 | -132.57582 | 38089 ft | 512 kts | 246° |
| 2026-05-04 09:32 | 36.98059 | -132.65530 | 38091 ft | 512 kts | 246° |
| 2026-05-04 09:34 | 36.85222 | -132.97207 | 38102 ft | 509 kts | 246° |
| 2026-05-04 09:34 | 36.82009 | -133.05086 | 38102 ft | 509 kts | 246° |
| 2026-05-04 09:35 | 36.78792 | -133.12956 | 38100 ft | 509 kts | 247° |
| 2026-05-04 09:35 | 36.75582 | -133.20789 | 38107 ft | 507 kts | 247° |
| 2026-05-04 09:37 | 36.62719 | -133.51993 | 38120 ft | 505 kts | 247° |
| 2026-05-04 09:38 | 36.59496 | -133.59765 | 38122 ft | 505 kts | 247° |
| 2026-05-04 09:38 | 36.56268 | -133.67529 | 38121 ft | 505 kts | 247° |
| 2026-05-04 09:39 | 36.53038 | -133.75279 | 38112 ft | 505 kts | 247° |
| 2026-05-04 09:39 | 36.49825 | -133.82970 | 38127 ft | 504 kts | 247° |
| 2026-05-04 09:40 | 36.46591 | -133.90692 | 38129 ft | 504 kts | 247° |
| 2026-05-04 09:40 | 36.43333 | -133.98457 | 38126 ft | 503 kts | 248° |
| 2026-05-04 09:42 | 36.30375 | -134.29151 | 38139 ft | 503 kts | 248° |
| 2026-05-04 09:43 | 36.27117 | -134.36824 | 38146 ft | 503 kts | 248° |
| 2026-05-04 09:43 | 36.23852 | -134.44493 | 38144 ft | 503 kts | 248° |
| 2026-05-04 09:44 | 36.20583 | -134.52155 | 38148 ft | 503 kts | 248° |
| 2026-05-04 09:46 | 36.07478 | -134.82691 | 38141 ft | 501 kts | 249° |
| 2026-05-04 09:46 | 36.04201 | -134.90281 | 38144 ft | 500 kts | 249° |
| 2026-05-04 09:47 | 36.00926 | -134.97853 | 38158 ft | 499 kts | 249° |
| 2026-05-04 09:49 | 35.89018 | -135.28387 | 38170 ft | 493 kts | 252° |
| 2026-05-04 09:51 | 35.78642 | -135.54965 | 38177 ft | 490 kts | 252° |
| 2026-05-04 09:51 | 35.75676 | -135.62527 | 38181 ft | 490 kts | 252° |
| 2026-05-04 09:52 | 35.72708 | -135.70078 | 38186 ft | 490 kts | 252° |
| 2026-05-04 09:52 | 35.69732 | -135.77630 | 38191 ft | 490 kts | 252° |
| 2026-05-04 09:53 | 35.66753 | -135.85172 | 38185 ft | 490 kts | 252° |
| 2026-05-04 09:53 | 35.63765 | -135.92719 | 38184 ft | 491 kts | 252° |
| 2026-05-04 09:54 | 35.60768 | -136.00270 | 38189 ft | 492 kts | 252° |
| 2026-05-04 09:54 | 35.57761 | -136.07831 | 38188 ft | 492 kts | 252° |
| 2026-05-04 09:55 | 35.54752 | -136.15375 | 38198 ft | 492 kts | 252° |
| 2026-05-04 09:55 | 35.51738 | -136.22917 | 38189 ft | 492 kts | 252° |
| 2026-05-04 09:56 | 35.48719 | -136.30454 | 38195 ft | 492 kts | 252° |
| 2026-05-04 09:56 | 35.45697 | -136.37979 | 38178 ft | 491 kts | 251° |
| 2026-05-04 09:57 | 35.42676 | -136.45483 | 38195 ft | 490 kts | 251° |
| 2026-05-04 09:57 | 35.39656 | -136.52971 | 38200 ft | 490 kts | 251° |
| 2026-05-04 09:58 | 35.36639 | -136.60434 | 38194 ft | 488 kts | 251° |
| 2026-05-04 09:58 | 35.33632 | -136.67851 | 38206 ft | 485 kts | 251° |
| 2026-05-04 10:00 | 35.21629 | -136.97319 | 38189 ft | 483 kts | 251° |
| 2026-05-04 10:04 | 35.00662 | -137.48158 | 38222 ft | 477 kts | 250° |
| 2026-05-04 10:04 | 34.97657 | -137.55382 | 38222 ft | 477 kts | 250° |
| 2026-05-04 10:05 | 34.94670 | -137.62547 | 38221 ft | 477 kts | 250° |
| 2026-05-04 10:05 | 34.91662 | -137.69746 | 38224 ft | 476 kts | 250° |
| 2026-05-04 10:06 | 34.88653 | -137.76931 | 38224 ft | 476 kts | 249° |
| 2026-05-04 10:06 | 34.85644 | -137.84104 | 38225 ft | 476 kts | 249° |
| 2026-05-04 10:08 | 34.75568 | -138.08009 | 38227 ft | 475 kts | 249° |
| 2026-05-04 10:08 | 34.72543 | -138.15152 | 38233 ft | 475 kts | 249° |
| 2026-05-04 10:09 | 34.69511 | -138.22296 | 38234 ft | 475 kts | 249° |
| 2026-05-04 10:09 | 34.66481 | -138.29424 | 38234 ft | 475 kts | 248° |
| 2026-05-04 10:10 | 34.63465 | -138.36501 | 38232 ft | 475 kts | 248° |
| 2026-05-04 10:10 | 34.60423 | -138.43622 | 38236 ft | 475 kts | 248° |
| 2026-05-04 10:11 | 34.57379 | -138.50736 | 38238 ft | 474 kts | 248° |
| 2026-05-04 10:11 | 34.54334 | -138.57836 | 38238 ft | 474 kts | 247° |
| 2026-05-04 10:12 | 34.51289 | -138.64923 | 38237 ft | 474 kts | 247° |
| 2026-05-04 10:12 | 34.48240 | -138.72002 | 38241 ft | 473 kts | 247° |
| 2026-05-04 10:13 | 34.45191 | -138.79067 | 38253 ft | 472 kts | 247° |
| 2026-05-04 10:13 | 34.42144 | -138.86115 | 38236 ft | 472 kts | 247° |
| 2026-05-04 10:14 | 34.39092 | -138.93159 | 38248 ft | 472 kts | 247° |
| 2026-05-04 10:16 | 34.26865 | -139.21239 | 38253 ft | 474 kts | 246° |
| 2026-05-04 10:16 | 34.23805 | -139.28229 | 38258 ft | 473 kts | 246° |
| 2026-05-04 10:17 | 34.20723 | -139.35255 | 38254 ft | 472 kts | 246° |
| 2026-05-04 10:19 | 34.08409 | -139.63188 | 38259 ft | 470 kts | 246° |
| 2026-05-04 10:19 | 34.05326 | -139.70146 | 38258 ft | 470 kts | 246° |
| 2026-05-04 10:20 | 34.02241 | -139.77096 | 38253 ft | 470 kts | 245° |
| 2026-05-04 10:20 | 33.99157 | -139.84027 | 38261 ft | 469 kts | 245° |
| 2026-05-04 10:21 | 33.96077 | -139.90940 | 38265 ft | 468 kts | 245° |
| 2026-05-04 10:21 | 33.92990 | -139.97853 | 38257 ft | 468 kts | 245° |
| 2026-05-04 10:22 | 33.88361 | -140.08193 | 38261 ft | 467 kts | 245° |
| 2026-05-04 10:23 | 33.85273 | -140.15073 | 38264 ft | 467 kts | 245° |
| 2026-05-04 10:25 | 33.72895 | -140.42520 | 38259 ft | 467 kts | 244° |
| 2026-05-04 10:25 | 33.69793 | -140.49365 | 38281 ft | 466 kts | 244° |
| 2026-05-04 10:26 | 33.66709 | -140.56157 | 38268 ft | 466 kts | 244° |
| 2026-05-04 10:26 | 33.63605 | -140.62979 | 38272 ft | 466 kts | 244° |
| 2026-05-04 10:27 | 33.60496 | -140.69802 | 38268 ft | 466 kts | 244° |
| 2026-05-04 10:27 | 33.57383 | -140.76618 | 38268 ft | 466 kts | 244° |
| 2026-05-04 10:28 | 33.54267 | -140.83427 | 38265 ft | 466 kts | 244° |
| 2026-05-04 10:28 | 33.51148 | -140.90231 | 38261 ft | 465 kts | 244° |
| 2026-05-04 10:29 | 33.48027 | -140.97025 | 38268 ft | 465 kts | 244° |
| 2026-05-04 10:29 | 33.44903 | -141.03815 | 38269 ft | 465 kts | 244° |
| 2026-05-04 10:30 | 33.41774 | -141.10601 | 38270 ft | 465 kts | 244° |
| 2026-05-04 10:30 | 33.38645 | -141.17374 | 38269 ft | 465 kts | 244° |
| 2026-05-04 10:31 | 33.35508 | -141.24152 | 38271 ft | 466 kts | 244° |
| 2026-05-04 10:32 | 33.24507 | -141.47820 | 38277 ft | 465 kts | 244° |
| 2026-05-04 10:33 | 33.21356 | -141.54570 | 38275 ft | 465 kts | 244° |
| 2026-05-04 10:33 | 33.18207 | -141.61304 | 38258 ft | 464 kts | 243° |
| 2026-05-04 10:34 | 33.15054 | -141.68034 | 38268 ft | 464 kts | 243° |
| 2026-05-04 10:34 | 33.11921 | -141.74710 | 38270 ft | 464 kts | 243° |
| 2026-05-04 10:35 | 33.08759 | -141.81434 | 38268 ft | 465 kts | 243° |
| 2026-05-04 10:35 | 33.05599 | -141.88140 | 38266 ft | 464 kts | 243° |
| 2026-05-04 10:36 | 33.02434 | -141.94845 | 38268 ft | 464 kts | 243° |
| 2026-05-04 10:36 | 32.99269 | -142.01543 | 38270 ft | 464 kts | 243° |
| 2026-05-04 10:37 | 32.96155 | -142.08262 | 38269 ft | 463 kts | 244° |
| 2026-05-04 10:37 | 32.93067 | -142.14977 | 38270 ft | 462 kts | 244° |
| 2026-05-04 10:39 | 32.82198 | -142.38411 | 38269 ft | 461 kts | 243° |
| 2026-05-04 10:40 | 32.79088 | -142.45079 | 38262 ft | 461 kts | 243° |
| 2026-05-04 10:40 | 32.75973 | -142.51748 | 38268 ft | 462 kts | 243° |
| 2026-05-04 10:41 | 32.72856 | -142.58407 | 38269 ft | 461 kts | 243° |
| 2026-05-04 10:41 | 32.69741 | -142.65051 | 38268 ft | 460 kts | 243° |
| 2026-05-04 10:42 | 32.66625 | -142.71687 | 38267 ft | 460 kts | 243° |
| 2026-05-04 10:42 | 32.63508 | -142.78311 | 38265 ft | 460 kts | 243° |
| 2026-05-04 10:43 | 32.60386 | -142.84933 | 38261 ft | 460 kts | 243° |
| 2026-05-04 10:45 | 32.47900 | -143.11300 | 38261 ft | 459 kts | 243° |
| 2026-05-04 10:45 | 32.44769 | -143.17883 | 38262 ft | 459 kts | 243° |
| 2026-05-04 10:46 | 32.41634 | -143.24462 | 38260 ft | 459 kts | 243° |
| 2026-05-04 10:46 | 32.38495 | -143.31039 | 38263 ft | 458 kts | 243° |
| 2026-05-04 10:47 | 32.35356 | -143.37601 | 38263 ft | 458 kts | 243° |
| 2026-05-04 10:47 | 32.32216 | -143.44156 | 38262 ft | 458 kts | 243° |
| 2026-05-04 10:49 | 32.19614 | -143.70345 | 38262 ft | 459 kts | 242° |
| 2026-05-04 10:50 | 32.16453 | -143.76885 | 38259 ft | 458 kts | 242° |
| 2026-05-04 10:52 | 32.03797 | -144.02957 | 38249 ft | 457 kts | 242° |
| 2026-05-04 10:52 | 32.00629 | -144.09454 | 38263 ft | 457 kts | 242° |
| 2026-05-04 10:54 | 31.87959 | -144.35328 | 38263 ft | 456 kts | 242° |
| 2026-05-04 10:56 | 31.75755 | -144.60083 | 38259 ft | 455 kts | 242° |
| 2026-05-04 10:57 | 31.72571 | -144.66515 | 38257 ft | 455 kts | 242° |
| 2026-05-04 10:57 | 31.69404 | -144.72902 | 38257 ft | 455 kts | 242° |
| 2026-05-04 10:58 | 31.66215 | -144.79323 | 38260 ft | 454 kts | 242° |
| 2026-05-04 10:58 | 31.63036 | -144.85712 | 38246 ft | 453 kts | 242° |
| 2026-05-04 10:59 | 31.59851 | -144.92103 | 38256 ft | 454 kts | 242° |
| 2026-05-04 10:59 | 31.56658 | -144.98500 | 38258 ft | 454 kts | 242° |
| 2026-05-04 11:00 | 31.53463 | -145.04888 | 38257 ft | 453 kts | 241° |
| 2026-05-04 11:02 | 31.40696 | -145.30313 | 38257 ft | 452 kts | 241° |
| 2026-05-04 11:05 | 31.16797 | -145.77456 | 38253 ft | 449 kts | 241° |
| 2026-05-04 11:06 | 31.13604 | -145.83711 | 38251 ft | 447 kts | 241° |
| 2026-05-04 11:06 | 31.10416 | -145.89947 | 38254 ft | 447 kts | 241° |
| 2026-05-04 11:10 | 30.88008 | -146.33493 | 38254 ft | 447 kts | 241° |
| 2026-05-04 11:12 | 30.75174 | -146.58215 | 38251 ft | 447 kts | 240° |
| 2026-05-04 11:12 | 30.71956 | -146.64389 | 38249 ft | 446 kts | 240° |
| 2026-05-04 11:13 | 30.68743 | -146.70545 | 38249 ft | 446 kts | 240° |
| 2026-05-04 11:13 | 30.65525 | -146.76701 | 38244 ft | 446 kts | 240° |
| 2026-05-04 11:14 | 30.62305 | -146.82850 | 38246 ft | 446 kts | 240° |
| 2026-05-04 11:16 | 30.49410 | -147.07379 | 38246 ft | 445 kts | 240° |
| 2026-05-04 11:16 | 30.46201 | -147.13461 | 38249 ft | 444 kts | 240° |
| 2026-05-04 11:17 | 30.42977 | -147.19560 | 38246 ft | 444 kts | 240° |
| 2026-05-04 11:19 | 30.30054 | -147.43918 | 38242 ft | 442 kts | 240° |
| 2026-05-04 11:19 | 30.26825 | -147.49980 | 38240 ft | 443 kts | 240° |
| 2026-05-04 11:20 | 30.23584 | -147.56057 | 38240 ft | 444 kts | 240° |
| 2026-05-04 11:20 | 30.20340 | -147.62130 | 38246 ft | 444 kts | 240° |
| 2026-05-04 11:22 | 30.07368 | -147.86321 | 38242 ft | 443 kts | 240° |
| 2026-05-04 11:23 | 30.04113 | -147.92367 | 38240 ft | 443 kts | 240° |
| 2026-05-04 11:25 | 29.91595 | -148.12618 | 38239 ft | 445 kts | 235° |
| 2026-05-04 11:25 | 29.87810 | -148.18256 | 38237 ft | 445 kts | 235° |
| 2026-05-04 11:27 | 29.70874 | -148.43473 | 38234 ft | 442 kts | 235° |
| 2026-05-04 11:28 | 29.67082 | -148.49100 | 38246 ft | 442 kts | 235° |
| 2026-05-04 11:28 | 29.63346 | -148.54636 | 38234 ft | 440 kts | 235° |
| 2026-05-04 11:29 | 29.59581 | -148.60207 | 38232 ft | 442 kts | 235° |
| 2026-05-04 11:29 | 29.55809 | -148.65780 | 38234 ft | 442 kts | 235° |
| 2026-05-04 11:33 | 29.29299 | -149.04742 | 38232 ft | 443 kts | 234° |
| 2026-05-04 11:33 | 29.25499 | -149.10296 | 38233 ft | 443 kts | 234° |
| 2026-05-04 11:34 | 29.21696 | -149.15848 | 38237 ft | 444 kts | 234° |
| 2026-05-04 11:34 | 29.17906 | -149.21375 | 38232 ft | 444 kts | 234° |
| 2026-05-04 11:35 | 29.14085 | -149.26936 | 38230 ft | 444 kts | 234° |
| 2026-05-04 11:35 | 29.10266 | -149.32489 | 38238 ft | 444 kts | 234° |
| 2026-05-04 11:36 | 29.06448 | -149.38032 | 38230 ft | 443 kts | 234° |
| 2026-05-04 11:36 | 29.02632 | -149.43566 | 38230 ft | 444 kts | 234° |
| 2026-05-04 11:37 | 28.98809 | -149.49103 | 38229 ft | 444 kts | 234° |
| 2026-05-04 11:37 | 28.94979 | -149.54640 | 38224 ft | 444 kts | 234° |
| 2026-05-04 11:38 | 28.91153 | -149.60166 | 38235 ft | 444 kts | 234° |
| 2026-05-04 11:38 | 28.87323 | -149.65690 | 38225 ft | 444 kts | 234° |
| 2026-05-04 11:39 | 28.83489 | -149.71213 | 38224 ft | 444 kts | 234° |
| 2026-05-04 11:41 | 28.70041 | -149.90527 | 38222 ft | 444 kts | 234° |
| 2026-05-04 11:41 | 28.66196 | -149.96033 | 38221 ft | 444 kts | 234° |
| 2026-05-04 11:42 | 28.62346 | -150.01537 | 38222 ft | 444 kts | 234° |
| 2026-05-04 11:42 | 28.58517 | -150.07006 | 38222 ft | 444 kts | 234° |
| 2026-05-04 11:43 | 28.54668 | -150.12496 | 38222 ft | 444 kts | 234° |
| 2026-05-04 11:43 | 28.50826 | -150.17968 | 38228 ft | 445 kts | 234° |
| 2026-05-04 11:44 | 28.47158 | -150.23188 | 38218 ft | 445 kts | 234° |
| 2026-05-04 11:44 | 28.43659 | -150.28159 | 38216 ft | 445 kts | 234° |
| 2026-05-04 11:45 | 28.40443 | -150.32723 | 38219 ft | 445 kts | 234° |
| 2026-05-04 11:45 | 28.36578 | -150.38202 | 38220 ft | 445 kts | 234° |
| 2026-05-04 11:46 | 28.32707 | -150.43682 | 38207 ft | 445 kts | 234° |
| 2026-05-04 11:46 | 28.28830 | -150.49165 | 38217 ft | 445 kts | 234° |
| 2026-05-04 11:47 | 28.24950 | -150.54643 | 38215 ft | 445 kts | 234° |
| 2026-05-04 11:47 | 28.21069 | -150.60117 | 38213 ft | 445 kts | 234° |
| 2026-05-04 11:48 | 28.17186 | -150.65586 | 38213 ft | 445 kts | 234° |
| 2026-05-04 11:48 | 28.13301 | -150.71051 | 38198 ft | 445 kts | 234° |
| 2026-05-04 11:49 | 28.09411 | -150.76517 | 38215 ft | 446 kts | 234° |
| 2026-05-04 11:49 | 28.05514 | -150.81985 | 38214 ft | 446 kts | 234° |
| 2026-05-04 11:50 | 28.01616 | -150.87447 | 38211 ft | 446 kts | 234° |
| 2026-05-04 11:50 | 27.97717 | -150.92903 | 38211 ft | 446 kts | 234° |
| 2026-05-04 11:51 | 27.93817 | -150.98355 | 38211 ft | 446 kts | 234° |
| 2026-05-04 11:51 | 27.89914 | -151.03802 | 38208 ft | 446 kts | 234° |
| 2026-05-04 11:52 | 27.86013 | -151.09241 | 38198 ft | 446 kts | 234° |
| 2026-05-04 11:52 | 27.82104 | -151.14684 | 38207 ft | 446 kts | 234° |
| 2026-05-04 11:53 | 27.78219 | -151.20087 | 38208 ft | 446 kts | 234° |
| 2026-05-04 11:53 | 27.74305 | -151.25522 | 38201 ft | 446 kts | 234° |
| 2026-05-04 11:55 | 27.58624 | -151.47234 | 38208 ft | 446 kts | 234° |
| 2026-05-04 11:56 | 27.54697 | -151.52654 | 38206 ft | 446 kts | 234° |
| 2026-05-04 11:56 | 27.50770 | -151.58068 | 38206 ft | 446 kts | 234° |
| 2026-05-04 11:57 | 27.46837 | -151.63482 | 38206 ft | 447 kts | 234° |
| 2026-05-04 11:57 | 27.42901 | -151.68894 | 38206 ft | 447 kts | 234° |
| 2026-05-04 11:58 | 27.38963 | -151.74302 | 38203 ft | 447 kts | 234° |
| 2026-05-04 11:58 | 27.35022 | -151.79708 | 38203 ft | 447 kts | 234° |
| 2026-05-04 11:59 | 27.31079 | -151.85110 | 38203 ft | 447 kts | 234° |
| 2026-05-04 11:59 | 27.27137 | -151.90504 | 38203 ft | 447 kts | 234° |
| 2026-05-04 12:00 | 27.23187 | -151.95903 | 38200 ft | 447 kts | 234° |
| 2026-05-04 12:00 | 27.19236 | -152.01294 | 38202 ft | 447 kts | 234° |
| 2026-05-04 12:01 | 27.15285 | -152.06680 | 38200 ft | 447 kts | 234° |
| 2026-05-04 12:02 | 27.01464 | -152.25467 | 38197 ft | 447 kts | 234° |
| 2026-05-04 12:03 | 26.97501 | -152.30840 | 38198 ft | 447 kts | 234° |
| 2026-05-04 12:03 | 26.93541 | -152.36203 | 38197 ft | 447 kts | 234° |
| 2026-05-04 12:04 | 26.89573 | -152.41569 | 38203 ft | 447 kts | 234° |
| 2026-05-04 12:04 | 26.85601 | -152.46935 | 38200 ft | 447 kts | 234° |
| 2026-05-04 12:05 | 26.81626 | -152.52298 | 38190 ft | 447 kts | 234° |
| 2026-05-04 12:05 | 26.77648 | -152.57657 | 38184 ft | 448 kts | 234° |
| 2026-05-04 12:06 | 26.73673 | -152.63008 | 38202 ft | 448 kts | 234° |
| 2026-05-04 12:06 | 26.69690 | -152.68362 | 38194 ft | 448 kts | 234° |
| 2026-05-04 12:07 | 26.65728 | -152.73682 | 38196 ft | 448 kts | 234° |
| 2026-05-04 12:07 | 26.61737 | -152.79034 | 38194 ft | 448 kts | 234° |
| 2026-05-04 12:08 | 26.57742 | -152.84384 | 38202 ft | 448 kts | 234° |
| 2026-05-04 12:08 | 26.53747 | -152.89728 | 38196 ft | 448 kts | 234° |
| 2026-05-04 12:09 | 26.49751 | -152.95068 | 38176 ft | 448 kts | 234° |
| 2026-05-04 12:09 | 26.45754 | -153.00403 | 38191 ft | 448 kts | 234° |
| 2026-05-04 12:10 | 26.41749 | -153.05743 | 38192 ft | 449 kts | 234° |
| 2026-05-04 12:10 | 26.37741 | -153.11079 | 38193 ft | 449 kts | 233° |
| 2026-05-04 12:11 | 26.33732 | -153.16411 | 38191 ft | 448 kts | 234° |
| 2026-05-04 12:11 | 26.29722 | -153.21737 | 38186 ft | 448 kts | 234° |
| 2026-05-04 12:12 | 26.25711 | -153.27059 | 38194 ft | 448 kts | 233° |
| 2026-05-04 12:12 | 26.21701 | -153.32373 | 38193 ft | 448 kts | 233° |
| 2026-05-04 12:14 | 26.05623 | -153.53617 | 38177 ft | 449 kts | 233° |
| 2026-05-04 12:15 | 26.01623 | -153.58887 | 38187 ft | 449 kts | 233° |
| 2026-05-04 12:15 | 25.97571 | -153.64218 | 38184 ft | 449 kts | 233° |
| 2026-05-04 12:16 | 25.93567 | -153.69482 | 38184 ft | 449 kts | 233° |
| 2026-05-04 12:16 | 25.89533 | -153.74777 | 38186 ft | 449 kts | 233° |
| 2026-05-04 12:17 | 25.85499 | -153.80067 | 38184 ft | 449 kts | 233° |
| 2026-05-04 12:17 | 25.81466 | -153.85350 | 38184 ft | 449 kts | 233° |
| 2026-05-04 12:18 | 25.77427 | -153.90635 | 38184 ft | 449 kts | 233° |
| 2026-05-04 12:18 | 25.73387 | -153.95914 | 38184 ft | 449 kts | 233° |
| 2026-05-04 12:19 | 25.69344 | -154.01190 | 38182 ft | 449 kts | 233° |
| 2026-05-04 12:19 | 25.65299 | -154.06465 | 38182 ft | 449 kts | 233° |
| 2026-05-04 12:20 | 25.61254 | -154.11733 | 38179 ft | 449 kts | 233° |
| 2026-05-04 12:20 | 25.57202 | -154.17005 | 38181 ft | 449 kts | 233° |
| 2026-05-04 12:21 | 25.53147 | -154.22273 | 38181 ft | 449 kts | 233° |
| 2026-05-04 12:21 | 25.49090 | -154.27539 | 38181 ft | 449 kts | 233° |
| 2026-05-04 12:22 | 25.45030 | -154.32801 | 38181 ft | 449 kts | 233° |
| 2026-05-04 12:22 | 25.40968 | -154.38061 | 38181 ft | 450 kts | 233° |
| 2026-05-04 12:23 | 25.36903 | -154.43320 | 38181 ft | 450 kts | 233° |
| 2026-05-04 12:23 | 25.32836 | -154.48573 | 38177 ft | 450 kts | 233° |
| 2026-05-04 12:24 | 25.28762 | -154.53831 | 38175 ft | 450 kts | 233° |
| 2026-05-04 12:24 | 25.24686 | -154.59085 | 38175 ft | 450 kts | 233° |
| 2026-05-04 12:25 | 25.20608 | -154.64336 | 38175 ft | 450 kts | 233° |
| 2026-05-04 12:25 | 25.16529 | -154.69583 | 38166 ft | 450 kts | 233° |
| 2026-05-04 12:26 | 25.12441 | -154.74834 | 38177 ft | 451 kts | 233° |
| 2026-05-04 12:26 | 25.08376 | -154.80051 | 38176 ft | 451 kts | 233° |
| 2026-05-04 12:27 | 25.04280 | -154.85301 | 38176 ft | 451 kts | 233° |
| 2026-05-04 12:27 | 25.00187 | -154.90541 | 38176 ft | 451 kts | 233° |
| 2026-05-04 12:28 | 24.96088 | -154.95785 | 38169 ft | 451 kts | 233° |
| 2026-05-04 12:28 | 24.91987 | -155.01024 | 38169 ft | 452 kts | 233° |
| 2026-05-04 12:29 | 24.87878 | -155.06268 | 38171 ft | 452 kts | 233° |
| 2026-05-04 12:29 | 24.83773 | -155.11501 | 38170 ft | 452 kts | 233° |
| 2026-05-04 12:30 | 24.79661 | -155.16737 | 38172 ft | 452 kts | 233° |
| 2026-05-04 12:30 | 24.75546 | -155.21970 | 38172 ft | 452 kts | 233° |
| 2026-05-04 12:31 | 24.71561 | -155.27302 | 38173 ft | 449 kts | 238° |
| 2026-05-04 12:31 | 24.67952 | -155.32914 | 38166 ft | 449 kts | 238° |
| 2026-05-04 12:32 | 24.62575 | -155.41348 | 38168 ft | 449 kts | 238° |
| 2026-05-04 12:33 | 24.58990 | -155.46975 | 38167 ft | 449 kts | 238° |
| 2026-05-04 12:33 | 24.56012 | -155.51645 | 38167 ft | 449 kts | 238° |
| 2026-05-04 12:34 | 24.52425 | -155.57266 | 38167 ft | 449 kts | 238° |
| 2026-05-04 12:34 | 24.48835 | -155.62884 | 38163 ft | 449 kts | 238° |
| 2026-05-04 12:35 | 24.45242 | -155.68501 | 38152 ft | 449 kts | 238° |
| 2026-05-04 12:35 | 24.41646 | -155.74115 | 38167 ft | 450 kts | 238° |
| 2026-05-04 12:36 | 24.38048 | -155.79728 | 38167 ft | 450 kts | 238° |
| 2026-05-04 12:36 | 24.34451 | -155.85331 | 38166 ft | 450 kts | 238° |
| 2026-05-04 12:37 | 24.30849 | -155.90937 | 38153 ft | 450 kts | 238° |
| 2026-05-04 12:37 | 24.27244 | -155.96540 | 38158 ft | 450 kts | 238° |
| 2026-05-04 12:38 | 24.23661 | -156.02103 | 38163 ft | 450 kts | 238° |
| 2026-05-04 12:38 | 24.20050 | -156.07702 | 38163 ft | 450 kts | 238° |
| 2026-05-04 12:39 | 24.16438 | -156.13298 | 38163 ft | 450 kts | 238° |
| 2026-05-04 12:39 | 24.12823 | -156.18892 | 38162 ft | 450 kts | 238° |
| 2026-05-04 12:40 | 24.09210 | -156.24477 | 38163 ft | 450 kts | 238° |
| 2026-05-04 12:40 | 24.04902 | -156.29479 | 38158 ft | 462 kts | 218° |
| 2026-05-04 12:40 | 24.02017 | -156.31089 | 38140 ft | 472 kts | 205° |
| 2026-05-04 12:41 | 23.98782 | -156.31873 | 38156 ft | 484 kts | 190° |
| 2026-05-04 12:41 | 23.95385 | -156.31731 | 38159 ft | 495 kts | 175° |
| 2026-05-04 12:41 | 23.91978 | -156.31186 | 38161 ft | 493 kts | 180° |
| 2026-05-04 12:42 | 23.85134 | -156.30635 | 38157 ft | 493 kts | 182° |
| 2026-05-04 12:42 | 23.78283 | -156.30153 | 38157 ft | 493 kts | 182° |
| 2026-05-04 12:43 | 23.71441 | -156.29678 | 38145 ft | 493 kts | 182° |
| 2026-05-04 12:43 | 23.64588 | -156.29205 | 38154 ft | 493 kts | 182° |
| 2026-05-04 12:44 | 23.57734 | -156.28733 | 38156 ft | 493 kts | 182° |
| 2026-05-04 12:44 | 23.50880 | -156.28261 | 38156 ft | 493 kts | 182° |
| 2026-05-04 12:45 | 23.44072 | -156.27793 | 38152 ft | 493 kts | 182° |
| 2026-05-04 12:45 | 23.37227 | -156.27323 | 38150 ft | 493 kts | 182° |
| 2026-05-04 12:46 | 23.30375 | -156.26853 | 38154 ft | 493 kts | 182° |
| 2026-05-04 12:46 | 23.23523 | -156.26384 | 38154 ft | 493 kts | 182° |
| 2026-05-04 12:47 | 23.19109 | -156.26082 | 38148 ft | 493 kts | 182° |
| 2026-05-04 12:58 | 23.14951 | -156.25797 | 38154 ft | 494 kts | 182° |
| 2026-05-04 12:59 | 23.08098 | -156.25329 | 38144 ft | 494 kts | 182° |
| 2026-05-04 12:59 | 23.01241 | -156.24861 | 38145 ft | 493 kts | 182° |
| 2026-05-04 13:00 | 22.94388 | -156.24393 | 38140 ft | 493 kts | 182° |
| 2026-05-04 13:00 | 22.87539 | -156.23927 | 38148 ft | 493 kts | 182° |
| 2026-05-04 13:01 | 22.80687 | -156.23461 | 38137 ft | 493 kts | 182° |
| 2026-05-04 13:01 | 22.73884 | -156.23005 | 38135 ft | 493 kts | 182° |
| 2026-05-04 13:02 | 22.67039 | -156.22537 | 38143 ft | 493 kts | 182° |
| 2026-05-04 13:02 | 22.60205 | -156.22072 | 37830 ft | 492 kts | 182° |
| 2026-05-04 13:02 | 22.56784 | -156.21841 | 37566 ft | 493 kts | 181° |
| 2026-05-04 13:03 | 22.53377 | -156.21611 | 37299 ft | 495 kts | 181° |
| 2026-05-04 13:03 | 22.49938 | -156.21379 | 37032 ft | 496 kts | 181° |
| 2026-05-04 13:03 | 22.46491 | -156.21146 | 36785 ft | 497 kts | 181° |
| 2026-05-04 13:03 | 22.43038 | -156.20912 | 36530 ft | 498 kts | 181° |
| 2026-05-04 13:04 | 22.39581 | -156.20679 | 36187 ft | 496 kts | 181° |
| 2026-05-04 13:04 | 22.36152 | -156.20446 | 35559 ft | 494 kts | 181° |
| 2026-05-04 13:04 | 22.32719 | -156.20215 | 34845 ft | 494 kts | 180° |
| 2026-05-04 13:04 | 22.29272 | -156.19983 | 34016 ft | 497 kts | 180° |
| 2026-05-04 13:05 | 22.25807 | -156.19751 | 33107 ft | 500 kts | 180° |
| 2026-05-04 13:05 | 22.22336 | -156.19517 | 32232 ft | 501 kts | 179° |
| 2026-05-04 13:05 | 22.18847 | -156.19283 | 31356 ft | 503 kts | 179° |
| 2026-05-04 13:05 | 22.15342 | -156.19047 | 30558 ft | 504 kts | 179° |
| 2026-05-04 13:06 | 22.11853 | -156.18811 | 29864 ft | 501 kts | 179° |
| 2026-05-04 13:06 | 22.08392 | -156.18577 | 29194 ft | 496 kts | 179° |
| 2026-05-04 13:06 | 22.04968 | -156.18346 | 28548 ft | 491 kts | 179° |
| 2026-05-04 13:06 | 22.01571 | -156.18118 | 27907 ft | 487 kts | 179° |
| 2026-05-04 13:07 | 21.98198 | -156.17891 | 27277 ft | 483 kts | 179° |
| 2026-05-04 13:07 | 21.94865 | -156.17667 | 26649 ft | 479 kts | 179° |
| 2026-05-04 13:07 | 21.91551 | -156.17445 | 26024 ft | 475 kts | 179° |
| 2026-05-04 13:07 | 21.88306 | -156.17228 | 25417 ft | 471 kts | 179° |
| 2026-05-04 13:08 | 21.85045 | -156.17010 | 24803 ft | 468 kts | 179° |
| 2026-05-04 13:08 | 21.81809 | -156.16793 | 24190 ft | 464 kts | 179° |
| 2026-05-04 13:08 | 21.78561 | -156.16576 | 23543 ft | 461 kts | 179° |
| 2026-05-04 13:08 | 21.75368 | -156.16362 | 22879 ft | 456 kts | 179° |
| 2026-05-04 13:09 | 21.72225 | -156.16152 | 22267 ft | 451 kts | 179° |
| 2026-05-04 13:09 | 21.69153 | -156.15947 | 21671 ft | 445 kts | 178° |
| 2026-05-04 13:09 | 21.66076 | -156.15741 | 21062 ft | 440 kts | 178° |
| 2026-05-04 13:09 | 21.63036 | -156.15538 | 20455 ft | 436 kts | 178° |
| 2026-05-04 13:10 | 21.60023 | -156.15338 | 19846 ft | 432 kts | 178° |
| 2026-05-04 13:10 | 21.57035 | -156.15139 | 19239 ft | 428 kts | 178° |
| 2026-05-04 13:10 | 21.54069 | -156.14942 | 18628 ft | 425 kts | 178° |
| 2026-05-04 13:10 | 21.51125 | -156.14744 | 17964 ft | 422 kts | 178° |
| 2026-05-04 13:11 | 21.48206 | -156.14551 | 17327 ft | 418 kts | 178° |
| 2026-05-04 13:11 | 21.45327 | -156.14360 | 16708 ft | 413 kts | 178° |
| 2026-05-04 13:11 | 21.42473 | -156.14170 | 16059 ft | 409 kts | 178° |
| 2026-05-04 13:11 | 21.39635 | -156.13981 | 15376 ft | 407 kts | 178° |
| 2026-05-04 13:12 | 21.36852 | -156.13796 | 14961 ft | 390 kts | 177° |
| 2026-05-04 13:12 | 21.34249 | -156.13621 | 14711 ft | 360 kts | 178° |
| 2026-05-04 13:12 | 21.31842 | -156.13460 | 14474 ft | 335 kts | 177° |
| 2026-05-04 13:12 | 21.29594 | -156.13310 | 14235 ft | 312 kts | 177° |
| 2026-05-04 13:13 | 21.27459 | -156.13168 | 14107 ft | 308 kts | 178° |
| 2026-05-04 13:13 | 21.25316 | -156.13028 | 13995 ft | 308 kts | 177° |
| 2026-05-04 13:13 | 21.23173 | -156.12886 | 13876 ft | 308 kts | 177° |
| 2026-05-04 13:13 | 21.21032 | -156.12745 | 13774 ft | 309 kts | 177° |
| 2026-05-04 13:14 | 21.18887 | -156.12642 | 13550 ft | 307 kts | 181° |
| 2026-05-04 13:14 | 21.16804 | -156.13081 | 13033 ft | 307 kts | 204° |
| 2026-05-04 13:14 | 21.14998 | -156.14255 | 12710 ft | 300 kts | 215° |
| 2026-05-04 13:14 | 21.13361 | -156.15527 | 12407 ft | 283 kts | 216° |
| 2026-05-04 13:15 | 21.11800 | -156.16748 | 11936 ft | 273 kts | 215° |
| 2026-05-04 13:15 | 21.10270 | -156.17939 | 11586 ft | 270 kts | 215° |
| 2026-05-04 13:15 | 21.08754 | -156.19112 | 11265 ft | 268 kts | 215° |
| 2026-05-04 13:15 | 21.07254 | -156.20269 | 10968 ft | 264 kts | 215° |
| 2026-05-04 13:16 | 21.05771 | -156.21412 | 10739 ft | 261 kts | 215° |
| 2026-05-04 13:16 | 21.04316 | -156.22531 | 10634 ft | 261 kts | 215° |
| 2026-05-04 13:16 | 21.02843 | -156.23664 | 10506 ft | 261 kts | 215° |
| 2026-05-04 13:16 | 21.01356 | -156.24806 | 10345 ft | 259 kts | 214° |
| 2026-05-04 13:17 | 20.99884 | -156.25921 | 10024 ft | 259 kts | 214° |
| 2026-05-04 13:17 | 20.98446 | -156.27008 | 9675 ft | 257 kts | 214° |
| 2026-05-04 13:17 | 20.96984 | -156.28114 | 9445 ft | 250 kts | 213° |
| 2026-05-04 13:17 | 20.95573 | -156.29182 | 9120 ft | 248 kts | 214° |
| 2026-05-04 13:18 | 20.94168 | -156.30246 | 8791 ft | 246 kts | 214° |
| 2026-05-04 13:18 | 20.92780 | -156.31296 | 8505 ft | 243 kts | 214° |
| 2026-05-04 13:18 | 20.91422 | -156.32325 | 8339 ft | 238 kts | 214° |
| 2026-05-04 13:18 | 20.90084 | -156.33337 | 8163 ft | 239 kts | 214° |
| 2026-05-04 13:19 | 20.88730 | -156.34364 | 7941 ft | 238 kts | 214° |
| 2026-05-04 13:19 | 20.87807 | -156.35034 | 7852 ft | 237 kts | 212° |
| 2026-05-04 13:19 | 20.85976 | -156.36298 | 7685 ft | 237 kts | 212° |
| 2026-05-04 13:19 | 20.84594 | -156.37253 | 7451 ft | 236 kts | 211° |
| 2026-05-04 13:20 | 20.83221 | -156.38207 | 7212 ft | 235 kts | 211° |
| 2026-05-04 13:20 | 20.81857 | -156.39158 | 6975 ft | 233 kts | 212° |
| 2026-05-04 13:20 | 20.80500 | -156.40105 | 6752 ft | 233 kts | 212° |
| 2026-05-04 13:20 | 20.79147 | -156.41052 | 6510 ft | 232 kts | 212° |
| 2026-05-04 13:21 | 20.77798 | -156.41997 | 6252 ft | 231 kts | 211° |
| 2026-05-04 13:21 | 20.76451 | -156.42940 | 6002 ft | 231 kts | 211° |
| 2026-05-04 13:21 | 20.75105 | -156.43881 | 5777 ft | 232 kts | 212° |
| 2026-05-04 13:21 | 20.73747 | -156.44833 | 5529 ft | 235 kts | 210° |
| 2026-05-04 13:22 | 20.72835 | -156.45471 | 5359 ft | 237 kts | 210° |
| 2026-05-04 13:22 | 20.71456 | -156.46437 | 5127 ft | 238 kts | 209° |
| 2026-05-04 13:22 | 20.70071 | -156.47402 | 4974 ft | 238 kts | 210° |
| 2026-05-04 13:22 | 20.68686 | -156.48371 | 4858 ft | 238 kts | 209° |
| 2026-05-04 13:23 | 20.67295 | -156.49343 | 4738 ft | 239 kts | 210° |
| 2026-05-04 13:23 | 20.65903 | -156.50315 | 4611 ft | 239 kts | 210° |
| 2026-05-04 13:23 | 20.64516 | -156.51287 | 4478 ft | 238 kts | 210° |
| 2026-05-04 13:23 | 20.63129 | -156.52256 | 4352 ft | 239 kts | 209° |
| 2026-05-04 13:24 | 20.61744 | -156.53224 | 4235 ft | 238 kts | 210° |
| 2026-05-04 13:24 | 20.60356 | -156.54189 | 4132 ft | 237 kts | 209° |
| 2026-05-04 13:24 | 20.59096 | -156.55343 | 4030 ft | 244 kts | 231° |
| 2026-05-04 13:25 | 20.58723 | -156.58766 | 3829 ft | 239 kts | 296° |
| 2026-05-04 13:25 | 20.59745 | -156.60104 | 3742 ft | 232 kts | 329° |
| 2026-05-04 13:25 | 20.61227 | -156.60587 | 3643 ft | 222 kts | 4° |
| 2026-05-04 13:25 | 20.62775 | -156.60635 | 3532 ft | 223 kts | 1° |
| 2026-05-04 13:26 | 20.64326 | -156.60697 | 3450 ft | 222 kts | 4° |
| 2026-05-04 13:26 | 20.65835 | -156.60472 | 3355 ft | 214 kts | 20° |
| 2026-05-04 13:26 | 20.67123 | -156.59869 | 3258 ft | 190 kts | 34° |
| 2026-05-04 13:26 | 20.68157 | -156.59141 | 3164 ft | 168 kts | 38° |
| 2026-05-04 13:27 | 20.69064 | -156.58459 | 3070 ft | 150 kts | 39° |
| 2026-05-04 13:27 | 20.69852 | -156.57863 | 3026 ft | 133 kts | 39° |
| 2026-05-04 13:27 | 20.70597 | -156.57300 | 3020 ft | 131 kts | 39° |
| 2026-05-04 13:27 | 20.71352 | -156.56737 | 3029 ft | 130 kts | 40° |
| 2026-05-04 13:28 | 20.72089 | -156.56189 | 3021 ft | 128 kts | 40° |
| 2026-05-04 13:28 | 20.72812 | -156.55651 | 3020 ft | 128 kts | 40° |
| 2026-05-04 13:28 | 20.73552 | -156.55099 | 3025 ft | 128 kts | 40° |
| 2026-05-04 13:28 | 20.74281 | -156.54555 | 3022 ft | 128 kts | 40° |
| 2026-05-04 13:29 | 20.74997 | -156.54022 | 3030 ft | 127 kts | 40° |
| 2026-05-04 13:29 | 20.75721 | -156.53481 | 3027 ft | 127 kts | 40° |
| 2026-05-04 13:29 | 20.76448 | -156.52938 | 2997 ft | 129 kts | 40° |
| 2026-05-04 13:29 | 20.77195 | -156.52381 | 2844 ft | 133 kts | 38° |
| 2026-05-04 13:30 | 20.77960 | -156.51812 | 2664 ft | 133 kts | 38° |
| 2026-05-04 13:30 | 20.78716 | -156.51246 | 2483 ft | 132 kts | 38° |
| 2026-05-04 13:30 | 20.79468 | -156.50684 | 2308 ft | 132 kts | 36° |
| 2026-05-04 13:30 | 20.80218 | -156.50125 | 2122 ft | 131 kts | 36° |
| 2026-05-04 13:31 | 20.80965 | -156.49567 | 1974 ft | 131 kts | 37° |
| 2026-05-04 13:31 | 20.81710 | -156.49010 | 1790 ft | 130 kts | 36° |
| 2026-05-04 13:31 | 20.82454 | -156.48455 | 1617 ft | 130 kts | 35° |
| 2026-05-04 13:31 | 20.83193 | -156.47903 | 1438 ft | 129 kts | 34° |
| 2026-05-04 13:32 | 20.83931 | -156.47353 | 1274 ft | 128 kts | 35° |
| 2026-05-04 13:32 | 20.84666 | -156.46803 | 1101 ft | 130 kts | 34° |
| 2026-05-04 13:32 | 20.85403 | -156.46253 | 974 ft | 124 kts | 34° |
| 2026-05-04 13:32 | 20.86170 | -156.45724 | 822 ft | 138 kts | 29° |
| 2026-05-04 13:33 | 20.86956 | -156.45142 | 578 ft | 136 kts | 36° |
| 2026-05-04 13:33 | 20.87704 | -156.44550 | 374 ft | 130 kts | 36° |
| 2026-05-04 13:33 | 20.88420 | -156.44010 | 176 ft | 125 kts | 34° |
| 2026-05-04 13:33 | 20.89134 | -156.43481 | 39 ft | 124 kts | 35° |
| 2026-05-04 13:34 | 20.89706 | -156.43046 | 36 ft | 64 kts | 36° |
| 2026-05-04 13:34 | 20.89935 | -156.42874 | 34 ft | 32 kts | 34° |
| 2026-05-04 13:34 | 20.90102 | -156.42749 | 34 ft | 28 kts | 33° |
| 2026-05-04 13:34 | 20.90250 | -156.42642 | 34 ft | 24 kts | 34° |
| 2026-05-04 13:35 | 20.90365 | -156.42559 | 36 ft | 15 kts | 35° |
| 2026-05-04 13:35 | 20.90450 | -156.42510 | 35 ft | 0 kts | 6° |
| 2026-05-04 13:35 | 20.90482 | -156.42540 | 35 ft | 9 kts | 285° |
| 2026-05-04 13:36 | 20.90464 | -156.42613 | 35 ft | 12 kts | 240° |
| 2026-05-04 13:36 | 20.90404 | -156.42686 | 35 ft | 15 kts | 213° |
| 2026-05-04 13:36 | 20.90311 | -156.42756 | 35 ft | 18 kts | 215° |
| 2026-05-04 13:36 | 20.90200 | -156.42834 | 34 ft | 21 kts | 214° |
| 2026-05-04 13:37 | 20.90075 | -156.42929 | 34 ft | 23 kts | 215° |
| 2026-05-04 13:37 | 20.89948 | -156.43024 | 36 ft | 23 kts | 215° |
| 2026-05-04 13:37 | 20.89867 | -156.43085 | 36 ft | 10 kts | 215° |
| 2026-05-04 13:37 | 20.89843 | -156.43103 | 36 ft | 0 kts | 215° |
| 2026-05-04 13:38 | 20.89803 | -156.43133 | 36 ft | 14 kts | 215° |
| 2026-05-04 13:38 | 20.89713 | -156.43200 | 37 ft | 17 kts | 215° |
| 2026-05-04 13:38 | 20.89634 | -156.43272 | 37 ft | 12 kts | 245° |
| 2026-05-04 13:39 | 20.89585 | -156.43349 | 37 ft | 14 kts | 214° |
| 2026-05-04 13:39 | 20.89519 | -156.43399 | 37 ft | 1 kts | 214° |
| 2026-05-04 13:39 | 20.89515 | -156.43402 | 37 ft | 0 kts | 216° |
| 2026-05-04 13:39 | 20.89501 | -156.43427 | 37 ft | 5 kts | 264° |
| 2026-05-04 13:40 | 20.89516 | -156.43468 | 38 ft | 6 kts | 297° |
| 2026-05-04 13:40 | 20.89528 | -156.43489 | 38 ft | 2 kts | 301° |
| 2026-05-04 13:40 | 20.89532 | -156.43495 | 38 ft | 0 kts | 304° |
| 2026-05-04 13:40 | 20.89533 | -156.43497 | 38 ft | 0 kts | 303° |
| 2026-05-04 13:41 | 20.89534 | -156.43498 | 38 ft | 0 kts | 302° |